createdAt,value
2019-04-01T00:01:09.410Z,37.00
2019-04-01T00:03:56.918Z,38.23
2019-04-01T00:09:38.078Z,36.70
2019-04-01T00:12:06.223Z,40.13
2019-04-01T00:14:34.361Z,38.05
2019-04-01T00:17:21.908Z,36.53
2019-04-01T00:19:50.038Z,39.30
2019-04-01T00:22:37.695Z,38.43
2019-04-01T00:31:20.256Z,39.17
2019-04-01T00:33:48.389Z,38.10
2019-04-01T00:36:35.887Z,35.53
2019-04-01T00:39:23.362Z,34.87
2019-04-01T00:42:10.930Z,36.33
2019-04-01T00:44:40.476Z,36.77
2019-04-01T00:47:08.954Z,37.60
2019-04-01T00:49:37.170Z,40.70
2019-04-01T00:52:05.326Z,34.47
2019-04-01T00:54:52.884Z,39.60
2019-04-01T00:57:21.028Z,38.80
2019-04-01T00:59:49.162Z,36.47
2019-04-01T01:02:36.700Z,34.33
2019-04-01T01:05:24.186Z,35.70
2019-04-01T01:10:54.060Z,37.00
2019-04-01T01:13:41.546Z,35.53
2019-04-01T01:16:09.720Z,35.20
2019-04-01T01:18:37.874Z,34.10
2019-04-01T01:21:06.011Z,35.77
2019-04-01T01:23:53.653Z,35.37
2019-04-01T01:26:21.814Z,36.50
2019-04-01T01:29:09.346Z,36.20
2019-04-01T01:31:37.667Z,37.10
2019-04-01T01:34:05.864Z,36.03
2019-04-01T01:36:53.482Z,35.23
2019-04-01T01:39:41.019Z,38.33
2019-04-01T01:42:09.271Z,40.97
2019-04-01T01:44:37.384Z,36.23
2019-04-01T01:47:24.914Z,34.57
2019-04-01T01:50:12.403Z,37.03
2019-04-01T02:13:39.421Z,39.30
2019-04-01T02:16:26.994Z,36.17
2019-04-01T02:24:47.928Z,35.83
2019-04-01T02:27:35.402Z,35.13
2019-04-01T02:30:04.685Z,36.33
2019-04-01T02:32:32.876Z,35.07
2019-04-01T02:35:01.031Z,34.17
2019-04-01T02:40:22.575Z,37.47
2019-04-01T02:42:50.787Z,35.00
2019-04-01T02:45:18.927Z,36.33
2019-04-01T02:47:47.084Z,37.17
2019-04-01T02:50:15.239Z,35.87
2019-04-01T02:52:43.376Z,35.90
2019-04-01T02:55:31.003Z,36.67
2019-04-01T02:57:59.138Z,35.00
2019-04-01T03:00:46.628Z,39.17
2019-04-01T03:21:31.369Z,34.43
2019-04-01T03:23:59.499Z,34.13
2019-04-01T03:26:47.144Z,32.23
2019-04-01T03:29:15.281Z,33.20
2019-04-01T03:31:43.419Z,32.87
2019-04-01T03:34:11.543Z,35.40
2019-04-01T03:36:58.979Z,29.10
2019-04-01T03:39:27.484Z,28.57
2019-04-01T03:41:55.613Z,32.90
2019-04-01T03:44:23.718Z,29.57
2019-04-01T03:46:51.851Z,29.03
2019-04-01T03:49:19.985Z,29.10
2019-04-01T03:51:48.077Z,27.73
2019-04-01T03:54:16.376Z,27.57
2019-04-01T03:56:44.538Z,29.00
2019-04-01T03:59:12.637Z,29.67
2019-04-01T04:02:00.231Z,30.87
2019-04-01T04:04:47.682Z,28.10
2019-04-01T04:10:17.321Z,27.90
2019-04-01T04:12:45.475Z,27.43
2019-04-01T04:15:13.619Z,28.57
2019-04-01T04:17:41.827Z,27.13
2019-04-01T04:20:29.290Z,26.80
2019-04-01T04:22:57.878Z,27.03
2019-04-01T04:25:26.277Z,25.87
2019-04-01T04:28:13.917Z,27.87
2019-04-01T04:31:01.350Z,28.13
2019-04-01T04:33:29.463Z,26.53
2019-04-01T04:35:57.567Z,26.80
2019-04-01T04:38:45.060Z,24.33
2019-04-01T04:41:13.162Z,27.33
2019-04-01T04:43:41.266Z,26.67
2019-04-01T04:46:28.787Z,23.43
2019-04-01T04:48:56.902Z,27.63
2019-04-01T04:51:44.386Z,26.83
2019-04-01T04:54:31.830Z,24.10
2019-04-01T05:00:02.366Z,25.07
2019-04-01T05:02:30.538Z,21.80
2019-04-01T05:05:18.061Z,23.67
2019-04-01T05:07:46.328Z,27.30
2019-04-01T05:10:33.918Z,23.80
2019-04-01T05:13:02.166Z,24.00
2019-04-01T05:15:49.756Z,22.47
2019-04-01T05:18:37.205Z,24.20
2019-04-01T05:21:05.639Z,21.13
2019-04-01T05:23:53.086Z,25.30
2019-04-01T05:29:21.611Z,22.30
2019-04-01T05:31:49.961Z,23.23
2019-04-01T05:34:38.958Z,23.37
2019-04-01T05:37:08.944Z,22.13
2019-04-01T05:39:56.466Z,23.70
2019-04-01T05:42:49.523Z,25.47
2019-04-01T05:45:17.882Z,21.40
2019-04-01T05:50:34.975Z,21.93
2019-04-01T05:53:03.154Z,22.60
2019-04-01T05:55:31.425Z,21.20
2019-04-01T05:58:19.053Z,19.30
2019-04-01T06:01:06.497Z,21.03
2019-04-01T06:03:34.693Z,21.73
2019-04-01T06:06:22.149Z,21.30
2019-04-01T06:11:51.994Z,20.50
2019-04-01T06:14:20.216Z,19.83
2019-04-01T06:16:48.355Z,17.77
2019-04-01T06:19:16.636Z,20.47
2019-04-01T06:21:44.761Z,19.07
2019-04-01T06:24:13.007Z,18.90
2019-04-01T06:26:41.290Z,19.47
2019-04-01T06:29:10.113Z,19.70
2019-04-01T06:31:38.249Z,17.20
2019-04-01T06:34:25.809Z,20.73
2019-04-01T06:37:13.282Z,15.77
2019-04-01T06:39:42.052Z,15.17
2019-04-01T06:42:29.519Z,15.70
2019-04-01T06:44:57.671Z,15.63
2019-04-01T06:47:45.182Z,17.90
2019-04-01T06:56:13.258Z,16.87
2019-04-01T06:58:41.386Z,16.12
2019-04-01T07:01:28.889Z,16.30
2019-04-01T07:03:57.032Z,19.05
2019-04-01T07:06:25.190Z,16.93
2019-04-01T07:09:14.216Z,17.90
2019-04-01T07:14:55.166Z,19.80
2019-04-01T07:17:42.674Z,16.73
2019-04-01T07:20:10.951Z,17.05
2019-04-01T07:22:39.096Z,17.37
2019-04-01T07:25:07.311Z,17.05
2019-04-01T07:27:54.957Z,15.10
2019-04-01T07:30:42.435Z,14.83
2019-04-01T07:36:12.059Z,15.53
2019-04-01T07:41:49.392Z,17.90
2019-04-01T07:44:17.595Z,15.35
2019-04-01T07:46:45.816Z,14.28
2019-04-01T07:49:14.029Z,14.70
2019-04-01T07:51:42.590Z,14.85
2019-04-01T07:54:10.738Z,16.52
2019-04-01T07:56:38.950Z,16.87
2019-04-01T07:59:07.098Z,14.18
2019-04-01T08:01:35.233Z,13.85
2019-04-01T08:04:03.609Z,14.53
2019-04-01T08:06:31.755Z,16.20
2019-04-01T08:09:19.273Z,15.13
2019-04-01T08:12:06.760Z,15.30
2019-04-01T08:17:58.402Z,15.35
2019-04-01T08:20:26.546Z,15.38
2019-04-01T08:22:54.753Z,15.55
2019-04-01T08:25:23.098Z,13.85
2019-04-01T08:28:10.576Z,14.50
2019-04-01T08:31:04.290Z,15.35
2019-04-01T08:36:45.133Z,15.38
2019-04-01T08:39:32.619Z,14.23
2019-04-01T08:51:24.490Z,14.87
2019-04-01T08:57:05.338Z,14.58
2019-04-01T08:59:33.554Z,14.05
2019-04-01T09:02:21.057Z,16.37
2019-04-01T09:04:49.216Z,15.13
2019-04-01T09:07:17.363Z,14.68
2019-04-01T09:10:04.894Z,13.85
2019-04-01T09:15:45.273Z,13.80
2019-04-01T09:18:13.480Z,14.13
2019-04-01T09:20:41.622Z,12.80
2019-04-01T09:23:10.067Z,15.25
2019-04-01T09:25:57.543Z,14.70
2019-04-01T09:31:24.981Z,14.33
2019-04-01T09:33:53.136Z,12.53
2019-04-01T09:36:40.847Z,16.42
2019-04-01T09:39:08.990Z,14.68
2019-04-01T09:41:37.155Z,14.60
2019-04-01T09:44:05.709Z,14.30
2019-04-01T09:46:53.211Z,14.83
2019-04-01T09:55:19.083Z,13.18
2019-04-01T09:58:06.558Z,14.03
2019-04-01T10:03:36.268Z,13.00
2019-04-01T10:06:04.394Z,14.30
2019-04-01T10:11:21.562Z,15.32
2019-04-01T10:13:49.689Z,14.83
2019-04-01T10:16:17.841Z,13.10
2019-04-01T10:18:46.015Z,15.80
2019-04-01T10:21:33.498Z,15.58
2019-04-01T10:24:01.986Z,13.53
2019-04-01T10:26:30.208Z,14.95
2019-04-01T10:28:58.343Z,15.55
2019-04-01T10:33:54.129Z,15.93
2019-04-01T10:36:22.284Z,12.55
2019-04-01T10:39:10.081Z,14.40
2019-04-01T10:41:38.229Z,15.28
2019-04-01T10:44:06.383Z,15.23
2019-04-01T10:46:34.904Z,13.93
2019-04-01T10:49:03.114Z,18.07
2019-04-01T10:51:31.414Z,16.05
2019-04-01T10:54:19.087Z,13.68
2019-04-01T10:56:47.455Z,13.83
2019-04-01T11:02:09.396Z,15.28
2019-04-01T11:04:37.737Z,15.08
2019-04-01T11:07:06.038Z,16.48
2019-04-01T11:09:38.544Z,12.40
2019-04-01T11:12:04.144Z,14.83
2019-04-01T11:14:32.283Z,14.98
2019-04-01T11:17:04.028Z,16.57
2019-04-01T11:19:30.717Z,17.42
2019-04-01T11:21:58.854Z,16.93
2019-04-01T11:24:46.435Z,16.62
2019-04-01T11:27:15.056Z,19.45
2019-04-01T11:30:02.536Z,17.07
2019-04-01T11:32:30.710Z,18.87
2019-04-01T11:35:18.253Z,16.95
2019-04-01T11:37:46.473Z,18.67
2019-04-01T11:40:38.631Z,15.95
2019-04-01T11:43:24.732Z,17.45
2019-04-01T11:45:53.402Z,17.23
2019-04-01T11:48:21.823Z,17.02
2019-04-01T11:50:50.005Z,14.80
2019-04-01T11:53:18.155Z,16.55
2019-04-01T11:55:46.384Z,17.37
2019-04-01T11:58:14.524Z,16.85
2019-04-01T12:00:42.805Z,18.00
2019-04-01T12:03:30.280Z,17.23
2019-04-01T12:05:58.571Z,19.52
2019-04-01T12:08:26.712Z,18.15
2019-04-01T12:10:54.921Z,18.42
2019-04-01T12:13:42.546Z,16.95
2019-04-01T12:16:30.027Z,20.57
2019-04-01T12:18:58.282Z,23.35
2019-04-01T12:21:26.450Z,19.37
2019-04-01T12:23:54.595Z,18.35
2019-04-01T12:28:56.709Z,18.07
2019-04-01T12:31:44.202Z,22.37
2019-04-01T12:34:12.433Z,19.25
2019-04-01T12:36:40.570Z,25.57
2019-04-01T12:39:09.070Z,19.25
2019-04-01T12:41:37.210Z,19.40
2019-04-01T12:44:05.415Z,19.05
2019-04-01T12:46:33.970Z,22.42
2019-04-01T12:49:02.105Z,17.82
2019-04-01T12:51:30.257Z,22.42
2019-04-01T12:53:58.500Z,18.30
2019-04-01T12:56:26.650Z,23.70
2019-04-01T12:58:54.938Z,18.50
2019-04-01T13:01:23.151Z,19.57
2019-04-01T13:03:51.324Z,20.20
2019-04-01T13:06:19.488Z,19.07
2019-04-01T13:08:47.769Z,19.67
2019-04-01T13:11:15.922Z,20.08
2019-04-01T13:13:44.781Z,18.32
2019-04-01T13:16:13.218Z,18.37
2019-04-01T13:18:41.404Z,19.17
2019-04-01T13:21:10.997Z,18.50
2019-04-01T13:23:39.665Z,18.87
2019-04-01T13:26:07.801Z,20.65
2019-04-01T13:28:35.942Z,21.05
2019-04-01T13:31:04.412Z,21.37
2019-04-01T13:33:32.545Z,20.88
2019-04-01T13:36:00.701Z,21.73
2019-04-01T13:38:29.284Z,17.62
2019-04-01T13:40:57.422Z,18.57
2019-04-01T13:43:25.570Z,18.60
2019-04-01T13:45:53.906Z,19.52
2019-04-01T13:48:22.046Z,19.35
2019-04-01T13:50:50.206Z,18.32
2019-04-01T13:53:18.359Z,19.48
2019-04-01T13:55:46.518Z,19.35
2019-04-01T13:58:17.441Z,19.20
2019-04-01T14:00:44.702Z,19.15
2019-04-01T14:03:12.833Z,19.07
2019-04-01T14:05:40.993Z,18.27
2019-04-01T14:08:09.411Z,19.95
2019-04-01T14:10:40.430Z,18.70
2019-04-01T14:13:07.417Z,19.25
2019-04-01T14:15:35.913Z,23.40
2019-04-01T14:18:04.066Z,19.07
2019-04-01T14:20:32.206Z,20.00
2019-04-01T14:23:00.738Z,20.70
2019-04-01T14:25:28.898Z,22.13
2019-04-01T14:27:57.045Z,19.23
2019-04-01T14:30:25.263Z,18.50
2019-04-01T14:32:53.726Z,19.87
2019-04-01T14:35:23.867Z,18.82
2019-04-01T14:37:51.954Z,18.00
2019-04-01T14:40:20.103Z,18.40
2019-04-01T14:42:48.242Z,19.48
2019-04-01T14:47:55.599Z,18.07
2019-04-01T14:50:20.343Z,22.07
2019-04-01T14:52:48.571Z,18.42
2019-04-01T14:55:16.705Z,19.25
2019-04-01T14:57:44.892Z,19.87
2019-04-01T15:00:13.685Z,17.25
2019-04-01T15:02:41.981Z,17.10
2019-04-01T15:05:29.621Z,16.87
2019-04-01T15:07:57.879Z,16.82
2019-04-01T15:10:45.418Z,18.67
2019-04-01T15:13:13.562Z,16.12
2019-04-01T15:15:41.835Z,19.82
2019-04-01T15:18:29.540Z,20.82
2019-04-01T15:20:57.861Z,16.12
2019-04-01T15:23:45.518Z,17.07
2019-04-01T15:26:13.661Z,19.20
2019-04-01T15:28:41.822Z,17.62
2019-04-01T15:31:09.986Z,16.67
2019-04-01T15:33:38.170Z,17.92
2019-04-01T15:36:06.307Z,16.90
2019-04-01T15:38:34.464Z,16.80
2019-04-01T15:41:02.586Z,16.05
2019-04-01T15:43:50.142Z,17.23
2019-04-01T15:49:30.965Z,16.48
2019-04-01T15:51:59.183Z,16.42
2019-04-01T15:54:27.368Z,16.37
2019-04-01T15:56:55.641Z,16.82
2019-04-01T15:59:23.818Z,16.82
2019-04-01T16:01:51.961Z,17.95
2019-04-01T16:04:20.291Z,17.32
2019-04-01T16:06:48.421Z,19.70
2019-04-01T16:09:16.632Z,17.42
2019-04-01T16:11:44.783Z,18.52
2019-04-01T16:14:12.941Z,18.85
2019-04-01T16:16:41.098Z,18.82
2019-04-01T16:19:09.440Z,16.57
2019-04-01T16:21:37.667Z,16.32
2019-04-01T16:24:05.833Z,17.02
2019-04-01T16:26:34.180Z,19.20
2019-04-01T16:29:02.368Z,17.98
2019-04-01T16:31:30.525Z,16.80
2019-04-01T16:33:58.902Z,18.80
2019-04-01T16:39:16.112Z,18.75
2019-04-01T16:41:44.249Z,17.95
2019-04-01T16:44:12.394Z,17.45
2019-04-01T16:46:41.105Z,16.97
2019-04-01T16:49:36.109Z,16.73
2019-04-01T16:52:04.719Z,17.07
2019-04-01T16:54:32.864Z,16.23
2019-04-01T16:57:01.022Z,17.10
2019-04-01T16:59:29.252Z,16.05
2019-04-01T17:01:57.831Z,16.20
2019-04-01T17:04:26.210Z,15.63
2019-04-01T17:06:54.450Z,15.88
2019-04-01T17:09:22.608Z,16.37
2019-04-01T17:11:54.063Z,16.55
2019-04-01T17:14:20.837Z,16.27
2019-04-01T17:16:48.978Z,16.00
2019-04-01T17:19:17.126Z,17.48
2019-04-01T17:22:04.735Z,14.90
2019-04-01T17:24:32.945Z,16.60
2019-04-01T17:27:02.658Z,15.83
2019-04-01T17:29:31.910Z,16.73
2019-04-01T17:32:00.232Z,16.35
2019-04-01T17:34:28.377Z,16.10
2019-04-01T17:36:56.633Z,16.05
2019-04-01T17:39:24.782Z,16.57
2019-04-01T17:41:52.934Z,15.38
2019-04-01T17:44:21.178Z,17.05
2019-04-01T17:46:49.314Z,16.48
2019-04-01T17:51:53.978Z,15.88
2019-04-01T17:54:21.662Z,14.95
2019-04-01T17:56:49.797Z,15.95
2019-04-01T17:59:18.119Z,15.40
2019-04-01T18:01:46.271Z,15.83
2019-04-01T18:04:14.588Z,17.02
2019-04-01T18:06:42.836Z,16.30
2019-04-01T18:09:11.074Z,16.65
2019-04-01T18:11:39.271Z,15.43
2019-04-01T18:14:07.403Z,14.85
2019-04-01T18:16:35.542Z,15.63
2019-04-01T18:19:03.682Z,14.50
2019-04-01T18:21:32.349Z,15.05
2019-04-01T18:24:00.549Z,15.00
2019-04-01T18:26:28.679Z,15.30
2019-04-01T18:28:56.933Z,15.28
2019-04-01T18:31:25.066Z,14.53
2019-04-01T18:33:56.319Z,14.60
2019-04-01T18:36:23.440Z,14.38
2019-04-01T18:38:51.634Z,12.40
2019-04-01T18:41:19.761Z,13.18
2019-04-01T18:43:47.980Z,16.75
2019-04-01T18:46:16.105Z,14.65
2019-04-01T18:49:03.909Z,14.93
2019-04-01T18:51:32.122Z,13.20
2019-04-01T18:54:00.254Z,14.07
2019-04-01T18:56:29.195Z,13.53
2019-04-01T18:58:57.600Z,16.10
2019-04-01T19:01:25.809Z,14.63
2019-04-01T19:03:54.078Z,14.07
2019-04-01T19:06:22.214Z,14.20
2019-04-01T19:08:50.350Z,14.28
2019-04-01T19:11:18.550Z,16.20
2019-04-01T19:13:46.719Z,12.93
2019-04-01T19:16:16.708Z,14.35
2019-04-01T19:18:44.828Z,17.40
2019-04-01T19:21:12.962Z,17.15
2019-04-01T19:24:00.574Z,14.60
2019-04-01T19:26:28.727Z,14.23
2019-04-01T19:28:58.328Z,15.80
2019-04-01T19:31:26.765Z,14.00
2019-04-01T19:33:54.918Z,15.32
2019-04-01T19:36:25.604Z,15.50
2019-04-01T19:38:54.501Z,17.75
2019-04-01T19:41:22.854Z,13.43
2019-04-01T19:43:51.357Z,12.98
2019-04-01T19:46:19.845Z,15.40
2019-04-01T19:48:47.996Z,15.60
2019-04-01T19:51:16.143Z,15.98
2019-04-01T19:53:44.421Z,14.93
2019-04-01T19:56:12.537Z,12.47
2019-04-01T19:58:40.654Z,14.07
2019-04-01T20:01:08.782Z,14.43
2019-04-01T20:03:36.979Z,12.07
2019-04-01T20:06:07.394Z,12.60
2019-04-01T20:08:35.046Z,13.35
2019-04-01T20:11:03.158Z,13.18
2019-04-01T20:13:50.781Z,13.78
2019-04-01T20:16:18.904Z,14.40
2019-04-01T20:18:47.010Z,15.80
2019-04-01T20:21:15.417Z,14.60
2019-04-01T20:23:43.549Z,13.28
2019-04-01T20:26:11.686Z,13.93
2019-04-01T20:28:40.058Z,12.95
2019-04-01T20:31:08.194Z,11.73
2019-04-01T20:33:36.369Z,13.25
2019-04-01T20:36:04.881Z,14.55
2019-04-01T20:38:33.022Z,12.73
2019-04-01T20:41:01.161Z,14.15
2019-04-01T20:43:29.394Z,13.48
2019-04-01T20:45:57.540Z,11.37
2019-04-01T20:48:25.703Z,11.85
2019-04-01T20:50:57.270Z,12.88
2019-04-01T20:53:25.735Z,12.23
2019-04-01T20:55:54.074Z,13.93
2019-04-01T20:58:22.282Z,10.63
2019-04-01T21:00:50.444Z,13.80
2019-04-01T21:03:18.561Z,10.57
2019-04-01T21:05:46.733Z,12.47
2019-04-01T21:08:16.202Z,12.30
2019-04-01T21:10:44.500Z,13.53
2019-04-01T21:13:12.797Z,10.50
2019-04-01T21:15:40.967Z,12.88
2019-04-01T21:18:09.142Z,12.98
2019-04-01T21:20:37.451Z,11.50
2019-04-01T21:23:07.042Z,12.20
2019-04-01T21:25:35.398Z,10.40
2019-04-01T21:28:05.137Z,14.43
2019-04-01T21:30:33.273Z,15.43
2019-04-01T21:33:01.414Z,13.00
2019-04-01T21:35:29.577Z,13.68
2019-04-01T21:37:57.728Z,11.20
2019-04-01T21:40:25.853Z,12.30
2019-04-01T21:42:56.574Z,11.55
2019-04-01T21:45:24.716Z,12.82
2019-04-01T21:47:52.850Z,11.00
2019-04-01T21:50:21.322Z,12.25
2019-04-01T21:52:49.459Z,11.43
2019-04-01T21:55:17.592Z,11.73
2019-04-01T21:57:45.795Z,10.35
2019-04-01T22:00:17.889Z,11.97
2019-04-01T22:02:45.606Z,13.35
2019-04-01T22:05:13.777Z,12.23
2019-04-01T22:07:41.925Z,13.20
2019-04-01T22:10:10.131Z,12.70
2019-04-01T22:12:38.294Z,11.07
2019-04-01T22:15:06.548Z,12.13
2019-04-01T22:17:35.080Z,12.03
2019-04-01T22:20:04.678Z,11.95
2019-04-01T22:22:33.007Z,14.30
2019-04-01T22:25:01.363Z,16.35
2019-04-01T22:27:30.129Z,10.93
2019-04-01T22:29:58.319Z,12.23
2019-04-01T22:32:27.114Z,10.63
2019-04-01T22:34:55.471Z,10.63
2019-04-01T22:37:27.559Z,10.93
2019-04-01T22:45:49.654Z,11.03
2019-04-01T22:48:18.235Z,10.20
2019-04-01T22:50:46.391Z,13.23
2019-04-01T22:53:14.662Z,13.35
2019-04-01T22:55:42.803Z,11.60
2019-04-01T22:58:14.132Z,16.30
2019-04-01T23:00:42.502Z,12.80
2019-04-01T23:03:11.444Z,12.77
2019-04-01T23:05:39.853Z,10.50
2019-04-01T23:08:08.009Z,10.03
2019-04-01T23:10:36.154Z,12.33
2019-04-01T23:13:04.290Z,11.68
2019-04-01T23:15:32.489Z,9.63
2019-04-01T23:18:00.645Z,10.97
2019-04-01T23:20:28.854Z,11.07
2019-04-01T23:22:58.001Z,11.73
2019-04-01T23:25:26.712Z,11.47
2019-04-01T23:27:55.492Z,11.77
2019-04-01T23:30:24.194Z,10.33
2019-04-01T23:32:52.442Z,9.83
2019-04-01T23:35:20.637Z,10.87
2019-04-01T23:37:48.935Z,10.07
2019-04-01T23:40:17.070Z,10.30
2019-04-01T23:42:45.206Z,9.97
2019-04-01T23:45:13.690Z,11.37
2019-04-01T23:47:41.834Z,9.83
2019-04-01T23:50:09.995Z,10.17
2019-04-01T23:52:38.209Z,11.20
2019-04-01T23:55:06.374Z,11.63
2019-04-01T23:57:34.520Z,10.37
